createdAt,value
2023-01-15T00:04:12.230Z,10.18
2023-01-15T00:09:15.565Z,10.33
2023-01-15T00:14:17.129Z,10.56
2023-01-15T00:19:18.759Z,10.72
2023-01-15T00:24:55.762Z,10.75
2023-01-15T00:29:57.375Z,10.89
2023-01-15T00:34:59.529Z,10.94
2023-01-15T00:40:01.128Z,10.90
2023-01-15T00:45:09.935Z,10.89
2023-01-15T00:50:14.180Z,10.83
2023-01-15T00:55:15.798Z,10.71
2023-01-15T01:00:17.686Z,10.63
2023-01-15T01:05:19.302Z,10.67
2023-01-15T01:10:20.961Z,10.63
2023-01-15T01:15:23.313Z,10.70
2023-01-15T01:20:24.965Z,10.67
2023-01-15T01:25:26.610Z,10.67
2023-01-15T01:30:28.230Z,10.78
2023-01-15T01:35:29.855Z,10.71
2023-01-15T01:40:31.430Z,10.83
2023-01-15T01:45:33.560Z,10.84
2023-01-15T01:50:35.686Z,10.75
2023-01-15T01:55:37.976Z,10.79
2023-01-15T02:00:42.370Z,10.78
2023-01-15T02:05:47.783Z,10.85
2023-01-15T02:10:53.106Z,10.76
2023-01-15T02:16:22.229Z,10.79
2023-01-15T02:21:42.176Z,10.71
2023-01-15T02:27:06.041Z,10.70
2023-01-15T02:32:14.133Z,10.79
2023-01-15T02:37:22.841Z,10.75
2023-01-15T02:42:26.995Z,10.71
2023-01-15T02:47:32.869Z,10.70
2023-01-15T02:52:37.713Z,10.79
2023-01-15T02:57:41.707Z,10.74
2023-01-15T03:02:49.562Z,10.84
2023-01-15T03:07:53.645Z,10.77
2023-01-15T03:13:04.377Z,10.71
2023-01-15T03:18:46.029Z,10.72
2023-01-15T03:23:51.659Z,10.70
2023-01-15T03:28:53.655Z,10.81
2023-01-15T03:33:55.257Z,10.77
2023-01-15T03:38:58.595Z,10.90
2023-01-15T03:44:27.903Z,10.87
2023-01-15T03:49:58.012Z,11.00
2023-01-15T03:55:26.201Z,11.19
2023-01-15T04:00:38.732Z,11.18
2023-01-15T04:05:41.850Z,11.26
2023-01-15T04:10:56.896Z,11.29
2023-01-15T04:16:02.112Z,11.33
2023-01-15T04:21:05.515Z,11.38
2023-01-15T04:26:09.216Z,11.32
2023-01-15T04:31:10.839Z,11.37
2023-01-15T04:36:14.434Z,11.34
2023-01-15T04:41:34.410Z,11.37
2023-01-15T04:46:43.002Z,11.33
2023-01-15T04:51:45.065Z,11.35
2023-01-15T04:56:48.210Z,11.35
2023-01-15T05:02:02.506Z,11.35
2023-01-15T05:07:05.484Z,11.27
2023-01-15T05:12:07.114Z,11.22
2023-01-15T05:17:08.644Z,11.28
2023-01-15T05:22:10.375Z,11.23
2023-01-15T05:27:11.961Z,11.24
2023-01-15T05:32:13.743Z,11.15
2023-01-15T05:37:15.425Z,11.23
2023-01-15T05:42:17.000Z,11.28
2023-01-15T05:47:18.680Z,11.20
2023-01-15T05:52:21.450Z,11.24
2023-01-15T05:57:23.004Z,11.30
2023-01-15T06:02:24.733Z,11.20
2023-01-15T06:07:26.385Z,11.08
2023-01-15T06:12:28.030Z,11.25
2023-01-15T06:17:29.613Z,11.25
2023-01-15T06:22:31.188Z,11.20
2023-01-15T06:27:32.861Z,11.23
2023-01-15T06:32:34.476Z,11.28
2023-01-15T06:37:36.044Z,11.33
2023-01-15T06:42:56.244Z,11.09
2023-01-15T06:47:58.224Z,11.05
2023-01-15T06:52:59.782Z,10.95
2023-01-15T06:58:03.880Z,10.02
2023-01-15T07:03:05.800Z,9.73
2023-01-15T07:08:07.391Z,9.18
2023-01-15T07:13:12.121Z,8.78
2023-01-15T07:18:13.692Z,8.61
2023-01-15T07:23:16.776Z,8.80
2023-01-15T07:28:18.465Z,8.86
2023-01-15T07:33:20.067Z,8.30
2023-01-15T07:38:21.640Z,8.30
2023-01-15T07:43:42.283Z,8.50
2023-01-15T07:49:02.551Z,8.56
2023-01-15T07:54:04.157Z,8.74
2023-01-15T07:59:05.720Z,8.85
2023-01-15T08:04:07.338Z,8.57
2023-01-15T08:09:08.977Z,8.77
2023-01-15T08:14:29.147Z,8.84
2023-01-15T08:19:30.852Z,8.73
2023-01-15T08:24:32.482Z,8.66
2023-01-15T08:29:34.074Z,8.76
2023-01-15T08:34:35.658Z,8.77
2023-01-15T08:39:37.299Z,8.81
2023-01-15T08:44:38.885Z,8.69
2023-01-15T08:49:40.416Z,8.67
2023-01-15T08:54:42.351Z,8.57
2023-01-15T08:59:43.983Z,8.73
2023-01-15T09:04:45.638Z,8.59
2023-01-15T09:09:47.249Z,8.75
2023-01-15T09:14:58.772Z,8.25
2023-01-15T09:20:04.711Z,8.73
2023-01-15T09:25:06.964Z,8.79
2023-01-15T09:30:11.258Z,8.73
2023-01-15T09:35:12.823Z,8.69
2023-01-15T09:40:53.026Z,8.71
2023-01-15T09:46:02.073Z,8.65
2023-01-15T09:51:22.749Z,8.49
2023-01-15T09:56:29.740Z,8.63
2023-01-15T10:01:33.178Z,8.43
2023-01-15T10:06:41.013Z,8.05
2023-01-15T10:12:04.869Z,8.23
2023-01-15T10:17:34.952Z,8.66
2023-01-15T10:22:46.880Z,8.61
2023-01-15T10:27:51.611Z,8.41
2023-01-15T10:33:02.416Z,8.55
2023-01-15T10:38:22.666Z,8.51
2023-01-15T10:43:44.795Z,8.53
2023-01-15T10:48:50.001Z,8.60
2023-01-15T10:53:53.858Z,8.28
2023-01-15T10:59:05.116Z,8.71
2023-01-15T11:04:15.884Z,8.85
2023-01-15T11:09:23.336Z,8.98
2023-01-15T11:15:01.930Z,8.81
2023-01-15T11:20:12.346Z,8.53
2023-01-15T11:25:14.227Z,8.65
2023-01-15T11:30:28.372Z,8.56
2023-01-15T11:35:30.937Z,8.82
2023-01-15T11:40:33.050Z,8.66
2023-01-15T11:45:53.318Z,8.61
2023-01-15T11:51:00.331Z,8.42
2023-01-15T11:56:06.561Z,8.69
2023-01-15T12:01:08.247Z,8.57
2023-01-15T12:06:11.956Z,8.80
2023-01-15T12:11:39.255Z,8.61
2023-01-15T12:16:49.376Z,8.58
2023-01-15T12:22:09.569Z,8.67
2023-01-15T12:27:52.267Z,8.73
2023-01-15T12:33:17.363Z,8.81
2023-01-15T12:38:32.453Z,8.81
2023-01-15T12:43:52.530Z,8.69
2023-01-15T12:49:03.380Z,8.96
2023-01-15T12:54:12.538Z,8.95
2023-01-15T12:59:25.422Z,8.78
2023-01-15T13:04:58.172Z,8.86
2023-01-15T13:10:19.984Z,8.93
2023-01-15T13:15:26.300Z,8.98
2023-01-15T13:20:53.972Z,8.87
2023-01-15T13:26:01.474Z,8.89
2023-01-15T13:31:13.606Z,9.02
2023-01-15T13:36:20.341Z,9.00
2023-01-15T13:41:44.249Z,8.94
2023-01-15T13:46:47.466Z,8.83
2023-01-15T13:51:49.552Z,8.95
2023-01-15T13:56:51.146Z,8.88
2023-01-15T14:01:52.893Z,8.73
2023-01-15T14:06:54.641Z,8.67
2023-01-15T14:11:59.251Z,8.52
2023-01-15T14:17:09.605Z,8.41
2023-01-15T14:22:17.111Z,8.30
2023-01-15T14:27:31.975Z,8.22
2023-01-15T14:32:53.757Z,8.55
2023-01-15T14:38:00.636Z,8.52
2023-01-15T14:43:10.257Z,8.50
2023-01-15T14:48:30.349Z,8.06
2023-01-15T14:53:50.168Z,8.10
2023-01-15T14:59:08.697Z,7.98
2023-01-15T15:04:45.038Z,7.98
2023-01-15T15:09:52.328Z,7.87
2023-01-15T15:15:08.105Z,7.89
2023-01-15T15:20:21.624Z,7.83
2023-01-15T15:25:26.027Z,7.89
2023-01-15T15:30:28.222Z,7.82
2023-01-15T15:35:31.158Z,7.87
2023-01-15T15:40:34.802Z,7.67
2023-01-15T15:45:55.204Z,8.00
2023-01-15T15:50:56.860Z,7.89
2023-01-15T15:55:59.765Z,7.97
2023-01-15T16:01:01.935Z,8.02
2023-01-15T16:06:06.737Z,8.13
2023-01-15T16:11:11.449Z,8.05
2023-01-15T16:16:13.701Z,7.98
2023-01-15T16:21:30.548Z,8.01
2023-01-15T16:26:38.455Z,7.93
2023-01-15T16:31:40.039Z,7.71
2023-01-15T16:36:45.326Z,7.54
2023-01-15T16:41:47.013Z,7.76
2023-01-15T16:46:57.074Z,7.63
2023-01-15T16:52:00.869Z,7.66
2023-01-15T16:57:28.544Z,7.69
2023-01-15T17:02:35.488Z,7.65
2023-01-15T17:07:38.817Z,7.68
2023-01-15T17:12:42.579Z,7.73
2023-01-15T17:17:49.045Z,7.45
2023-01-15T17:22:51.068Z,7.38
2023-01-15T17:27:56.033Z,7.58
2023-01-15T17:33:01.773Z,7.43
2023-01-15T17:38:04.815Z,7.22
2023-01-15T17:43:07.610Z,7.16
2023-01-15T17:48:09.456Z,7.33
2023-01-15T17:53:11.140Z,7.19
2023-01-15T17:58:32.370Z,7.36
2023-01-15T18:03:53.982Z,7.17
2023-01-15T18:08:57.864Z,7.22
2023-01-15T18:13:59.533Z,7.22
2023-01-15T18:19:01.130Z,7.12
2023-01-15T18:24:04.279Z,7.42
2023-01-15T18:29:07.165Z,7.16
2023-01-15T18:34:09.054Z,7.21
2023-01-15T18:39:12.989Z,7.24
2023-01-15T18:44:38.275Z,7.16
2023-01-15T18:49:44.756Z,7.09
2023-01-15T18:54:46.315Z,6.97
2023-01-15T18:59:48.211Z,7.12
2023-01-15T19:04:49.886Z,6.92
2023-01-15T19:09:51.621Z,6.94
2023-01-15T19:15:11.759Z,7.04
2023-01-15T19:20:15.593Z,6.77
2023-01-15T19:25:17.505Z,6.81
2023-01-15T19:30:19.875Z,6.94
2023-01-15T19:35:21.991Z,7.19
2023-01-15T19:40:24.085Z,6.92
2023-01-15T19:45:44.325Z,7.06
2023-01-15T19:50:46.876Z,7.06
2023-01-15T19:55:48.493Z,6.83
2023-01-15T20:00:50.208Z,6.95
2023-01-15T20:05:52.014Z,6.91
2023-01-15T20:10:53.853Z,6.79
2023-01-15T20:15:55.469Z,7.08
2023-01-15T20:20:57.115Z,7.09
2023-01-15T20:26:07.527Z,7.08
2023-01-15T20:31:17.366Z,7.16
2023-01-15T20:36:19.070Z,6.96
2023-01-15T20:41:39.164Z,7.06
2023-01-15T20:46:40.888Z,7.08
2023-01-15T20:51:42.485Z,7.06
2023-01-15T20:56:44.069Z,7.14
2023-01-15T21:01:45.815Z,7.08
2023-01-15T21:06:47.486Z,7.09
2023-01-15T21:11:49.281Z,7.14
2023-01-15T21:16:51.700Z,7.16
2023-01-15T21:21:53.519Z,7.18
2023-01-15T21:26:55.324Z,7.30
2023-01-15T21:31:57.216Z,7.06
2023-01-15T21:36:58.933Z,7.15
2023-01-15T21:42:18.984Z,7.24
2023-01-15T21:47:20.664Z,7.36
2023-01-15T21:52:22.284Z,7.27
2023-01-15T21:57:23.851Z,7.18
2023-01-15T22:02:25.508Z,7.26
2023-01-15T22:07:27.131Z,7.17
2023-01-15T22:12:28.732Z,7.29
2023-01-15T22:17:30.351Z,7.26
2023-01-15T22:22:35.507Z,7.30
2023-01-15T22:27:40.816Z,7.26
2023-01-15T22:32:42.757Z,7.15
2023-01-15T22:37:44.450Z,7.16
2023-01-15T22:42:46.095Z,7.07
2023-01-15T22:47:47.657Z,7.21
2023-01-15T22:52:49.258Z,7.09
2023-01-15T22:57:50.927Z,7.09
2023-01-15T23:02:55.974Z,7.16
2023-01-15T23:07:57.617Z,7.15
2023-01-15T23:12:59.199Z,7.15
2023-01-15T23:18:00.812Z,7.02
2023-01-15T23:23:02.413Z,7.28
2023-01-15T23:28:04.140Z,7.21
2023-01-15T23:33:05.759Z,7.25
2023-01-15T23:38:07.285Z,7.02
2023-01-15T23:43:28.707Z,7.07
2023-01-15T23:48:30.345Z,7.16
2023-01-15T23:53:31.929Z,7.07
2023-01-15T23:58:33.571Z,7.06
